Time;durP1;ratioP1;P1;durP2;ratioP2;P2;SDS_P1;SDS_P2;PMS_P1;PMS_P2;Temp;Humidity;BMP_temperature;BMP_pressure;BME280_temperature;BME280_humidity;BME280_pressure;Samples;Min_cycle;Max_cycle;Signal;HPM_P1;HPM_P2
2022/07/06 00:01:40;;;;;;;;;2.67;2.00;;;;;19.36;41.79;102351.09;5048921;28;63101;-51
2022/07/06 00:04:06;;;;;;;;;3.00;3.00;;;;;19.31;42.04;102356.81;5053604;28;45468;-51
2022/07/06 00:06:32;;;;;;;;;2.00;2.00;;;;;19.28;42.24;102362.38;5051379;28;45357;-52
2022/07/06 00:08:58;;;;;;;;;3.00;1.67;;;;;19.27;42.38;102361.50;5052314;28;45550;-53
2022/07/06 00:11:23;;;;;;;;;2.00;2.00;;;;;19.29;42.34;102359.56;5058640;28;62730;-50
2022/07/06 00:13:49;;;;;;;;;3.00;3.00;;;;;19.33;41.92;102362.94;5057529;28;47357;-53
2022/07/06 00:16:15;;;;;;;;;2.00;2.00;;;;;19.34;42.19;102360.16;5048039;28;45513;-52
2022/07/06 00:18:40;;;;;;;;;2.67;2.67;;;;;19.34;42.39;102357.44;5049628;28;45369;-52
2022/07/06 00:21:05;;;;;;;;;4.00;4.00;;;;;19.34;42.51;102351.19;5059299;28;51496;-53
2022/07/06 00:23:31;;;;;;;;;2.00;2.00;;;;;19.34;42.32;102351.19;5050377;28;45962;-53
2022/07/06 00:25:56;;;;;;;;;2.00;2.00;;;;;19.33;42.51;102346.75;5058457;28;49002;-53
2022/07/06 00:28:21;;;;;;;;;3.67;3.67;;;;;19.33;42.54;102355.75;5055355;28;55680;-52
2022/07/06 00:30:47;;;;;;;;;2.00;2.00;;;;;19.36;42.40;102353.78;5051460;28;55713;-51
2022/07/06 00:33:12;;;;;;;;;2.00;2.00;;;;;19.39;42.66;102361.72;5055946;28;74514;-53
2022/07/06 00:35:38;;;;;;;;;1.00;1.00;;;;;19.41;42.39;102354.38;5057277;28;62984;-53
2022/07/06 00:38:03;;;;;;;;;4.33;3.00;;;;;19.41;42.61;102354.38;5047263;28;68800;-54
2022/07/06 00:40:29;;;;;;;;;3.00;2.00;;;;;19.42;42.59;102353.41;5048285;28;45674;-53
2022/07/06 00:42:55;;;;;;;;;1.00;1.00;;;;;19.42;42.36;102350.72;5047432;28;46857;-52
2022/07/06 00:45:20;;;;;;;;;3.00;3.00;;;;;19.42;42.51;102350.72;5048364;28;45580;-53
2022/07/06 00:47:46;;;;;;;;;2.00;2.00;;;;;19.40;42.54;102352.63;5054987;28;56398;-52
2022/07/06 00:50:22;;;;;;;;;3.00;1.00;;;;;19.39;42.70;102351.78;5054711;28;65316;-50
2022/07/06 00:53:03;;;;;;;;;1.00;1.00;;;;;19.37;42.63;102347.44;5054644;28;46142;-53
2022/07/06 00:55:31;;;;;;;;;4.67;4.67;;;;;19.34;42.70;102354.75;5047841;28;45411;-53
2022/07/06 00:57:57;;;;;;;;;4.00;3.00;;;;;19.31;42.90;102349.56;5059224;28;45430;-53
2022/07/06 01:00:25;;;;;;;;;3.00;3.00;;;;;19.29;43.15;102350.63;5058951;28;45306;-52
2022/07/06 01:02:50;;;;;;;;;2.00;2.00;;;;;19.28;43.14;102349.75;5054933;28;46200;-51
2022/07/06 01:05:16;;;;;;;;;2.00;2.00;;;;;19.28;43.63;102355.16;5054149;28;45488;-53
2022/07/06 01:07:43;;;;;;;;;4.00;2.00;;;;;19.27;42.86;102352.56;5055926;28;45286;-53
2022/07/06 01:10:11;;;;;;;;;2.00;2.00;;;;;19.26;43.39;102364.31;5052665;28;47006;-53
2022/07/06 01:12:38;;;;;;;;;5.00;3.00;;;;;19.25;43.54;102365.25;5058249;28;45759;-51
2022/07/06 01:15:04;;;;;;;;;2.00;2.00;;;;;19.22;43.49;102360.94;5057592;28;45524;-53
2022/07/06 01:17:30;;;;;;;;;3.00;3.00;;;;;19.21;43.63;102361.03;5056409;28;45561;-50
2022/07/06 01:19:56;;;;;;;;;2.00;2.00;;;;;19.16;43.52;102366.69;5056723;28;45724;-52
2022/07/06 01:22:21;;;;;;;;;2.00;2.00;;;;;19.12;43.59;102359.75;5056939;28;53310;-50
2022/07/06 01:24:47;;;;;;;;;3.33;3.33;;;;;19.11;43.69;102360.72;5056529;28;70979;-51
2022/07/06 01:27:12;;;;;;;;;2.67;2.67;;;;;19.09;43.74;102362.66;5052186;28;45765;-50
2022/07/06 01:29:37;;;;;;;;;3.00;3.00;;;;;19.08;43.95;102360.91;5045597;28;45531;-53
2022/07/06 01:32:03;;;;;;;;;3.00;2.00;;;;;19.04;43.94;102356.69;5052585;28;71097;-51
2022/07/06 01:34:28;;;;;;;;;2.33;2.33;;;;;19.01;43.99;102363.13;5045916;28;45452;-52
2022/07/06 01:36:54;;;;;;;;;2.00;2.00;;;;;18.98;43.99;102358.78;5047704;28;65267;-50
2022/07/06 01:39:20;;;;;;;;;2.67;2.67;;;;;18.97;44.22;102359.75;5054118;28;45470;-50
2022/07/06 01:41:45;;;;;;;;;2.33;2.00;;;;;18.94;44.45;102357.25;5048718;28;46036;-53
2022/07/06 01:44:11;;;;;;;;;3.00;2.00;;;;;18.92;44.32;102356.47;5056162;28;45483;-53
2022/07/06 01:46:36;;;;;;;;;3.00;3.00;;;;;18.89;44.54;102359.34;5056864;28;45394;-50
2022/07/06 01:49:02;;;;;;;;;4.33;3.00;;;;;18.87;44.68;102361.22;5056042;28;59399;-52
2022/07/06 01:51:27;;;;;;;;;2.33;2.33;;;;;18.84;44.71;102373.06;5047525;28;46499;-53
2022/07/06 01:53:52;;;;;;;;;4.33;2.67;;;;;18.82;44.91;102358.81;5047112;28;72174;-50
2022/07/06 01:56:19;;;;;;;;;3.00;3.00;;;;;18.80;44.55;102357.19;5055288;28;58041;-53
2022/07/06 01:58:45;;;;;;;;;3.33;3.33;;;;;18.78;45.06;102348.31;5051761;28;45860;-49
2022/07/06 02:01:13;;;;;;;;;3.00;3.00;;;;;18.73;44.85;102359.34;5057584;28;45340;-52
2022/07/06 02:03:39;;;;;;;;;4.00;2.67;;;;;18.70;44.99;102356.00;5049082;28;45371;-51
2022/07/06 02:06:05;;;;;;;;;4.00;4.00;;;;;18.66;44.98;102352.63;5056152;27;45276;-49
2022/07/06 02:08:31;;;;;;;;;5.00;4.00;;;;;18.62;45.58;102356.47;5049151;28;45425;-53
2022/07/06 02:10:56;;;;;;;;;3.67;3.67;;;;;18.61;45.39;102354.72;5048789;28;45453;-53
2022/07/06 02:13:22;;;;;;;;;3.33;3.33;;;;;18.60;45.38;102355.66;5055775;28;65733;-53
2022/07/06 02:15:47;;;;;;;;;5.00;3.67;;;;;18.61;45.40;102352.03;5050776;28;57981;-51
2022/07/06 02:18:12;;;;;;;;;4.00;4.00;;;;;18.62;45.48;102348.38;5046937;28;71643;-53
2022/07/06 02:20:38;;;;;;;;;5.00;5.00;;;;;18.63;45.37;102350.97;5057044;28;72233;-53
2022/07/06 02:23:03;;;;;;;;;5.00;3.00;;;;;18.63;45.53;102342.00;5055920;28;71725;-51
2022/07/06 02:25:29;;;;;;;;;3.00;3.00;;;;;18.62;45.82;102346.53;5047163;28;66720;-53
2022/07/06 02:27:54;;;;;;;;;4.00;4.00;;;;;18.58;46.04;102336.91;5049662;28;68105;-53
2022/07/06 02:30:19;;;;;;;;;2.33;2.33;;;;;18.57;45.88;102337.84;5060429;28;46119;-53
2022/07/06 02:32:45;;;;;;;;;5.00;5.00;;;;;18.57;45.70;102332.47;5059738;28;45411;-52
2022/07/06 02:35:10;;;;;;;;;4.00;4.00;;;;;18.58;46.04;102327.97;5061181;28;58823;-52
2022/07/06 02:37:36;;;;;;;;;5.67;4.00;;;;;18.58;46.25;102322.59;5059086;27;45627;-53
2022/07/06 02:40:01;;;;;;;;;4.00;4.00;;;;;18.56;46.18;102330.72;5046041;28;54054;-52
2022/07/06 02:42:26;;;;;;;;;5.00;4.00;;;;;18.56;46.15;102325.34;5055276;28;45309;-53
2022/07/06 02:44:53;;;;;;;;;6.00;4.00;;;;;18.54;46.24;102329.97;5054732;28;62892;-53
2022/07/06 02:47:18;;;;;;;;;3.33;3.00;;;;;18.52;46.04;102335.47;5055661;28;45477;-52
2022/07/06 02:49:43;;;;;;;;;4.67;3.00;;;;;18.49;46.36;102334.75;5044479;28;73393;-53
2022/07/06 02:52:09;;;;;;;;;3.00;3.00;;;;;18.45;46.04;102341.31;5051158;28;68658;-53
2022/07/06 02:54:34;;;;;;;;;6.33;5.00;;;;;18.41;46.65;102345.09;5056820;28;45357;-50
2022/07/06 02:56:59;;;;;;;;;5.67;4.00;;;;;18.40;46.64;102346.94;5056222;28;70523;-52
2022/07/06 02:59:25;;;;;;;;;4.00;4.00;;;;;18.35;46.72;102349.94;5058513;28;70318;-53
2022/07/06 03:01:50;;;;;;;;;3.00;3.00;;;;;18.31;46.67;102353.72;5061449;28;48064;-52
2022/07/06 03:04:15;;;;;;;;;3.00;3.00;;;;;18.30;46.57;102356.53;5051253;28;66899;-53
2022/07/06 03:06:41;;;;;;;;;5.00;4.67;;;;;18.26;46.76;102355.81;5060009;28;45479;-52
2022/07/06 03:09:06;;;;;;;;;5.00;4.67;;;;;18.24;46.67;102357.75;5052337;28;70024;-51
2022/07/06 03:11:35;;;;;;;;;4.67;4.67;;;;;18.22;47.11;102354.28;5055084;28;69085;-52
2022/07/06 03:14:02;;;;;;;;;8.00;5.00;;;;;18.21;47.10;102355.22;5060676;28;45331;-52
2022/07/06 03:16:28;;;;;;;;;5.33;4.33;;;;;18.22;47.09;102356.97;5059399;28;45551;-52
2022/07/06 03:18:53;;;;;;;;;7.00;4.00;;;;;18.24;47.20;102354.19;5054326;28;45462;-50
2022/07/06 03:21:18;;;;;;;;;4.00;4.00;;;;;18.25;47.02;102355.91;5058964;28;61301;-52
2022/07/06 03:23:44;;;;;;;;;3.67;3.67;;;;;18.25;47.40;102361.31;5059528;28;65459;-50
2022/07/06 03:26:09;;;;;;;;;4.00;4.00;;;;;18.23;47.25;102357.84;5058759;28;65312;-54
2022/07/06 03:28:35;;;;;;;;;7.00;6.00;;;;;18.18;47.29;102358.97;5057031;28;69537;-51
2022/07/06 03:31:00;;;;;;;;;6.00;4.00;;;;;18.15;47.23;102358.28;5055122;28;45476;-52
2022/07/06 03:33:25;;;;;;;;;3.33;3.33;;;;;18.12;47.64;102367.41;5057450;28;45330;-52
2022/07/06 03:35:50;;;;;;;;;6.33;4.00;;;;;18.09;47.56;102362.19;5053111;28;66158;-52
2022/07/06 03:38:16;;;;;;;;;7.00;5.00;;;;;18.06;47.64;102364.22;5057615;28;66166;-51
2022/07/06 03:40:41;;;;;;;;;2.33;2.33;;;;;18.05;47.69;102362.47;5057478;28;45468;-51
2022/07/06 03:43:07;;;;;;;;;5.00;5.00;;;;;18.04;48.15;102363.41;5056260;28;45899;-49
2022/07/06 03:45:32;;;;;;;;;3.00;3.00;;;;;17.99;48.26;102372.63;5042704;28;67576;-51
2022/07/06 03:47:57;;;;;;;;;4.33;4.00;;;;;17.98;47.99;102370.88;5057464;28;57330;-52
2022/07/06 03:50:22;;;;;;;;;5.33;4.00;;;;;17.95;48.08;102372.88;5056543;28;72632;-52
2022/07/06 03:52:48;;;;;;;;;5.00;5.00;;;;;17.93;48.16;102372.09;5048881;28;62578;-52
2022/07/06 03:55:13;;;;;;;;;4.67;4.67;;;;;17.90;48.35;102374.91;5050521;28;66108;-51
2022/07/06 03:57:40;;;;;;;;;3.67;3.00;;;;;17.86;48.75;102366.19;5050970;28;46115;-50
2022/07/06 04:00:07;;;;;;;;;3.67;3.67;;;;;17.84;48.54;102376.13;5059342;28;45420;-52
2022/07/06 04:02:32;;;;;;;;;3.00;3.00;;;;;17.83;48.75;102382.47;5059358;28;45457;-52
2022/07/06 04:04:58;;;;;;;;;7.33;6.00;;;;;17.82;48.80;102381.63;5059783;28;45346;-50
2022/07/06 04:07:23;;;;;;;;;5.00;5.00;;;;;17.83;48.64;102377.97;5055183;28;46115;-53
2022/07/06 04:09:48;;;;;;;;;4.00;4.00;;;;;17.85;48.68;102377.88;5059783;28;45340;-52
2022/07/06 04:12:14;;;;;;;;;6.33;6.00;;;;;17.86;48.82;102379.63;5057885;28;57346;-53
2022/07/06 04:14:39;;;;;;;;;8.67;7.00;;;;;17.86;48.73;102379.63;5058015;28;64540;-50
2022/07/06 04:17:51;;;;;;;;;9.67;5.33;;;;;17.84;48.58;102384.22;5057899;28;74097;-50
2022/07/06 04:19:50;;;;;;;;;5.00;5.00;;;;;17.80;48.91;102378.13;5058540;27;45350;-53
2022/07/06 04:22:15;;;;;;;;;4.67;4.67;;;;;17.79;49.13;102384.47;5058999;28;45295;-52
2022/07/06 04:24:40;;;;;;;;;5.33;5.00;;;;;17.78;49.20;102382.75;5058664;28;68720;-52
2022/07/06 04:27:06;;;;;;;;;6.33;4.33;;;;;17.77;49.12;102386.38;5058968;28;67919;-50
2022/07/06 04:29:31;;;;;;;;;5.33;5.33;;;;;17.76;48.99;102387.34;5058029;28;72171;-54
2022/07/06 04:31:56;;;;;;;;;4.33;4.33;;;;;17.78;49.11;102373.78;5057189;28;65224;-52
2022/07/06 04:34:22;;;;;;;;;4.00;4.00;;;;;17.80;49.53;102385.34;5048897;28;45335;-50
2022/07/06 04:36:47;;;;;;;;;6.33;5.00;;;;;17.83;49.26;102374.41;5058224;28;70662;-49
2022/07/06 04:39:12;;;;;;;;;5.00;5.00;;;;;17.85;49.56;102381.44;5048495;28;63367;-52
2022/07/06 04:41:38;;;;;;;;;5.67;5.67;;;;;17.90;49.20;102380.31;5050119;28;62659;-50
2022/07/06 04:44:03;;;;;;;;;5.67;5.67;;;;;17.93;49.07;102382.88;5057857;28;65248;-50
2022/07/06 04:46:28;;;;;;;;;5.33;4.33;;;;;17.94;49.14;102374.72;5058063;28;59064;-50
2022/07/06 04:48:54;;;;;;;;;8.33;7.33;;;;;17.97;49.31;102379.06;5056595;28;73752;-53
2022/07/06 04:51:19;;;;;;;;;5.00;5.00;;;;;17.99;49.26;102380.69;5057711;28;52949;-53
2022/07/06 04:53:45;;;;;;;;;5.00;5.00;;;;;17.99;48.84;102379.81;5058161;28;63877;-52
2022/07/06 04:56:10;;;;;;;;;6.00;4.67;;;;;17.98;49.14;102381.66;5057030;28;46337;-52
2022/07/06 04:58:36;;;;;;;;;5.33;5.00;;;;;17.98;49.49;102387.03;5059005;28;45280;-53
2022/07/06 05:01:01;;;;;;;;;5.00;4.67;;;;;17.97;49.48;102395.19;5057041;28;59059;-52
2022/07/06 05:03:27;;;;;;;;;6.33;5.00;;;;;17.97;49.51;102389.81;5058073;28;45393;-53
2022/07/06 05:05:52;;;;;;;;;4.00;4.00;;;;;17.97;49.31;102385.28;5057383;28;70125;-53
2022/07/06 05:08:18;;;;;;;;;4.00;4.00;;;;;17.98;49.29;102381.66;5057949;28;46490;-51
2022/07/06 05:10:44;;;;;;;;;8.00;6.33;;;;;17.99;49.42;102386.09;5055980;28;45343;-53
2022/07/06 05:13:09;;;;;;;;;6.00;6.00;;;;;18.00;49.48;102390.53;5061820;27;45316;-54
2022/07/06 05:15:35;;;;;;;;;6.00;5.00;;;;;18.02;49.43;102393.13;5054369;28;45988;-53
2022/07/06 05:18:00;;;;;;;;;6.00;5.67;;;;;18.02;49.68;102385.03;5055382;28;45479;-53
2022/07/06 05:20:25;;;;;;;;;6.67;5.67;;;;;18.01;49.47;102392.22;5053690;28;67020;-54
2022/07/06 05:22:51;;;;;;;;;4.67;4.67;;;;;18.01;49.39;102389.53;5054280;28;68113;-53
2022/07/06 05:25:17;;;;;;;;;5.67;4.33;;;;;17.99;49.37;102388.78;5037947;28;46166;-53
2022/07/06 05:27:42;;;;;;;;;4.67;4.67;;;;;17.97;49.35;102387.13;5056848;28;45386;-53
2022/07/06 05:30:08;;;;;;;;;6.00;6.00;;;;;17.99;49.29;102390.56;5057727;28;45471;-52
2022/07/06 05:32:33;;;;;;;;;3.67;3.00;;;;;17.99;49.68;102386.09;5056527;28;45561;-53
2022/07/06 05:34:59;;;;;;;;;5.00;5.00;;;;;18.02;49.51;102385.91;5056972;28;65803;-52
2022/07/06 05:37:24;;;;;;;;;5.00;5.00;;;;;18.06;49.49;102404.59;5055791;28;69880;-53
2022/07/06 05:39:50;;;;;;;;;5.00;5.00;;;;;18.09;49.34;102390.94;5056615;28;63002;-54
2022/07/06 05:42:16;;;;;;;;;6.00;6.00;;;;;18.12;49.78;102396.13;5057630;28;45295;-53
2022/07/06 05:44:42;;;;;;;;;6.33;6.33;;;;;18.12;50.14;102402.41;5053370;28;46219;-53
2022/07/06 05:52:35;;;;;;;;;5.33;5.33;;;;;18.25;49.55;102399.00;5058820;28;45295;-53
2022/07/06 05:55:00;;;;;;;;;6.00;6.00;;;;;18.26;49.25;102393.53;5056334;28;73761;-54
2022/07/06 05:57:26;;;;;;;;;6.33;5.00;;;;;18.31;49.71;102395.97;5056555;28;45457;-54
2022/07/06 05:59:51;;;;;;;;;5.00;5.00;;;;;18.38;49.74;102404.56;5054208;28;64502;-53
2022/07/06 06:02:17;;;;;;;;;9.33;8.00;;;;;18.43;49.29;102399.78;5043448;28;67532;-53
2022/07/06 06:04:42;;;;;;;;;7.67;7.00;;;;;18.48;49.22;102395.84;5055700;28;46266;-53
2022/07/06 06:07:08;;;;;;;;;9.00;7.00;;;;;18.54;49.20;102400.03;5054789;28;45416;-52
2022/07/06 06:09:33;;;;;;;;;8.00;6.00;;;;;18.62;48.81;102413.03;5056682;28;45384;-53
2022/07/06 06:11:58;;;;;;;;;9.67;6.33;;;;;18.71;48.71;102414.31;5057790;28;45366;-54
2022/07/06 06:14:24;;;;;;;;;7.00;7.00;;;;;18.79;48.75;102409.34;5056173;28;58646;-52
2022/07/06 06:16:49;;;;;;;;;8.67;7.00;;;;;18.88;48.54;102410.59;5055947;28;65709;-52
2022/07/06 06:19:15;;;;;;;;;6.33;6.33;;;;;18.92;48.36;102413.06;5055986;28;67294;-53
2022/07/06 06:21:40;;;;;;;;;6.67;5.33;;;;;18.99;48.53;102416.25;5053807;28;45669;-51
2022/07/06 06:24:06;;;;;;;;;3.33;3.33;;;;;19.06;48.09;102414.94;5054345;28;45875;-52
2022/07/06 06:26:31;;;;;;;;;6.00;6.00;;;;;19.12;48.00;102411.00;5052738;28;45761;-53
2022/07/06 06:28:56;;;;;;;;;7.67;6.67;;;;;19.23;48.02;102415.72;5056359;28;68165;-52
2022/07/06 06:31:21;;;;;;;;;7.00;5.00;;;;;19.32;47.72;102402.56;5052652;28;68482;-50
2022/07/06 06:33:47;;;;;;;;;8.00;7.00;;;;;19.45;47.59;102407.16;5054615;28;45894;-57
2022/07/06 06:36:12;;;;;;;;;10.00;5.67;;;;;19.61;47.37;102405.25;5055388;28;67179;-57
2022/07/06 06:38:37;;;;;;;;;4.00;4.00;;;;;19.79;47.23;102410.44;5056925;28;67253;-57
2022/07/06 06:41:03;;;;;;;;;6.00;6.00;;;;;19.96;46.63;102410.25;5057898;28;45585;-57
2022/07/06 06:43:28;;;;;;;;;7.00;5.00;;;;;20.17;45.98;102407.13;5056894;28;45465;-57
2022/07/06 06:45:53;;;;;;;;;5.33;4.00;;;;;20.40;46.33;102412.84;5057263;28;45456;-57
2022/07/06 06:48:19;;;;;;;;;5.67;5.00;;;;;20.60;45.99;102417.78;5049390;28;63490;-58
2022/07/06 06:50:45;;;;;;;;;4.33;4.33;;;;;20.86;45.43;102415.19;5051614;28;45529;-57
2022/07/06 06:53:10;;;;;;;;;8.00;6.67;;;;;21.13;45.17;102416.94;5053586;28;45745;-57
2022/07/06 06:55:36;;;;;;;;;5.67;5.67;;;;;21.40;44.26;102419.56;5054173;28;45261;-56
2022/07/06 06:58:01;;;;;;;;;6.00;5.00;;;;;21.66;43.87;102424.13;5051159;28;60109;-56
2022/07/06 07:00:26;;;;;;;;;6.00;6.00;;;;;21.88;43.31;102424.28;5053983;28;65512;-57
2022/07/06 07:02:52;;;;;;;;;6.00;5.33;;;;;22.08;43.25;102416.56;5055246;28;71659;-58
2022/07/06 07:05:17;;;;;;;;;4.67;4.67;;;;;22.38;42.80;102413.44;5043105;28;45312;-58
2022/07/06 07:07:43;;;;;;;;;6.67;5.00;;;;;22.81;41.86;102409.28;5051930;28;45656;-58
2022/07/06 07:10:08;;;;;;;;;5.00;5.00;;;;;23.50;41.04;102411.19;5056235;28;45491;-58
2022/07/06 07:12:34;;;;;;;;;6.33;4.67;;;;;24.59;40.66;102416.81;5059040;28;46033;-58
2022/07/06 07:15:00;;;;;;;;;6.00;5.00;;;;;26.12;39.47;102416.28;5060153;28;45683;-58
2022/07/06 07:17:25;;;;;;;;;5.00;5.00;;;;;27.84;36.27;102414.63;5048545;28;45580;-57
2022/07/06 07:19:51;;;;;;;;;6.67;5.00;;;;;29.35;34.83;102414.84;5057124;28;57931;-57
2022/07/06 07:22:16;;;;;;;;;5.33;4.00;;;;;30.86;32.40;102416.81;5059523;28;46118;-57
2022/07/06 07:24:41;;;;;;;;;4.67;4.67;;;;;32.24;30.34;102423.97;5055983;28;72411;-57
2022/07/06 07:27:07;;;;;;;;;4.33;4.33;;;;;33.53;28.79;102427.81;5058420;28;60845;-58
2022/07/06 07:29:32;;;;;;;;;7.33;5.00;;;;;34.81;27.83;102425.44;5059175;28;45403;-58
2022/07/06 07:31:57;;;;;;;;;7.67;6.00;;;;;35.89;25.85;102419.56;5059043;28;71454;-57
2022/07/06 07:34:23;;;;;;;;;3.00;3.00;;;;;36.95;24.09;102419.94;5052986;28;72287;-58
2022/07/06 07:36:48;;;;;;;;;4.33;2.00;;;;;37.85;23.24;102421.22;5052694;28;45555;-58
2022/07/06 07:39:14;;;;;;;;;4.00;4.00;;;;;38.56;21.85;102424.81;5057658;28;66938;-58
2022/07/06 07:41:39;;;;;;;;;5.67;5.00;;;;;39.30;20.98;102418.63;5058032;28;68227;-58
2022/07/06 07:44:04;;;;;;;;;2.67;2.67;;;;;40.12;20.82;102414.59;5055679;28;45418;-58
2022/07/06 07:46:30;;;;;;;;;3.00;2.33;;;;;40.88;19.38;102425.16;5059947;28;45336;-58
2022/07/06 07:48:55;;;;;;;;;2.33;1.67;;;;;41.63;18.74;102423.47;5054988;28;45550;-58
2022/07/06 07:51:20;;;;;;;;;2.67;2.67;;;;;42.25;18.21;102422.75;5058521;28;46841;-58
2022/07/06 07:53:46;;;;;;;;;2.33;2.33;;;;;42.61;17.30;102423.34;5059367;28;45371;-58
2022/07/06 07:56:12;;;;;;;;;3.00;2.00;;;;;43.00;16.80;102419.78;5056135;28;45393;-59
2022/07/06 07:58:37;;;;;;;;;4.00;2.33;;;;;43.30;16.34;102426.94;5049987;28;45657;-59
2022/07/06 08:01:04;;;;;;;;;4.00;2.67;;;;;43.72;16.23;102420.72;5058404;28;46295;-59
2022/07/06 08:03:29;;;;;;;;;3.00;3.00;;;;;44.23;15.03;102420.41;5051848;28;45295;-59
2022/07/06 08:05:55;;;;;;;;;9.00;3.67;;;;;44.50;14.65;102419.56;5054014;28;45444;-58
2022/07/06 08:08:20;;;;;;;;;2.67;2.67;;;;;44.82;14.89;102415.88;5051299;28;54849;-59
2022/07/06 08:10:45;;;;;;;;;2.00;2.00;;;;;45.23;14.67;102418.94;5051564;28;53282;-58
2022/07/06 08:13:11;;;;;;;;;4.33;4.33;;;;;45.57;14.51;102426.94;5053423;28;66302;-58
2022/07/06 08:15:37;;;;;;;;;4.00;2.00;;;;;45.85;14.21;102413.50;5058617;28;45507;-58
2022/07/06 08:18:03;;;;;;;;;3.33;3.33;;;;;46.40;13.05;102416.69;5058988;28;45552;-58
2022/07/06 08:20:29;;;;;;;;;4.00;4.00;;;;;46.87;13.29;102416.63;5058760;28;45382;-58
2022/07/06 08:22:54;;;;;;;;;4.00;4.00;;;;;47.21;12.98;102415.97;5058619;28;45397;-58
2022/07/06 08:25:20;;;;;;;;;3.33;3.33;;;;;47.72;12.45;102423.34;5058725;28;45930;-57
2022/07/06 08:27:45;;;;;;;;;5.00;5.00;;;;;48.02;12.22;102419.50;5058135;28;45956;-58
2022/07/06 08:30:11;;;;;;;;;5.00;5.00;;;;;48.04;11.56;102419.19;5051750;28;65380;-58
2022/07/06 08:32:38;;;;;;;;;4.00;4.00;;;;;48.07;11.97;102409.31;5053232;28;45359;-58
2022/07/06 08:35:04;;;;;;;;;4.00;4.00;;;;;48.39;11.55;102420.03;5056199;28;45588;-58
2022/07/06 08:37:30;;;;;;;;;5.00;3.67;;;;;48.68;11.74;102410.75;5058620;28;45459;-57
2022/07/06 08:39:55;;;;;;;;;3.33;3.33;;;;;49.17;10.42;102412.44;5053174;28;72380;-57
2022/07/06 08:42:21;;;;;;;;;3.00;3.00;;;;;49.46;9.82;102417.16;5057276;28;64756;-57
2022/07/06 08:44:47;;;;;;;;;4.00;4.00;;;;;49.57;9.83;102414.19;5053825;28;62133;-57
2022/07/06 08:47:13;;;;;;;;;3.67;3.67;;;;;49.98;10.61;102414.44;5052795;28;63585;-57
2022/07/06 08:49:39;;;;;;;;;4.67;4.33;;;;;50.30;10.70;102412.75;5057985;28;72551;-57
2022/07/06 08:52:05;;;;;;;;;6.00;4.67;;;;;50.57;9.46;102413.97;5056729;28;54461;-57
2022/07/06 08:54:30;;;;;;;;;3.33;3.33;;;;;50.87;9.30;102408.06;5050377;28;45364;-57
2022/07/06 08:56:56;;;;;;;;;4.33;3.33;;;;;51.25;9.23;102404.97;5051290;28;67174;-57
2022/07/06 08:59:21;;;;;;;;;4.67;4.00;;;;;51.39;9.01;102405.78;5051669;28;69003;-57
2022/07/06 09:01:47;;;;;;;;;6.00;5.67;;;;;51.24;9.53;102398.50;5053955;28;45324;-57
2022/07/06 09:04:13;;;;;;;;;4.33;4.33;;;;;50.36;10.17;102399.38;5046146;28;45624;-57
2022/07/06 09:06:42;;;;;;;;;4.00;4.00;;;;;49.93;9.49;102396.69;5054210;28;45583;-57
2022/07/06 09:09:07;;;;;;;;;3.67;3.67;;;;;49.64;9.26;102394.91;5050728;28;45553;-56
2022/07/06 09:11:33;;;;;;;;;3.00;3.00;;;;;48.90;10.09;102398.09;5061955;28;45435;-57
2022/07/06 09:13:58;;;;;;;;;1.33;1.33;;;;;49.13;9.59;102408.53;5057478;28;45549;-57
2022/07/06 09:16:28;;;;;;;;;2.00;2.00;;;;;49.60;10.25;102400.28;5063303;28;67800;-57
2022/07/06 09:18:54;;;;;;;;;3.33;3.33;;;;;49.93;9.03;102400.34;5058138;28;46095;-57
2022/07/06 09:21:30;;;;;;;;;2.00;2.00;;;;;50.14;9.89;102400.03;5057194;28;69606;-57
2022/07/06 09:23:56;;;;;;;;;3.00;3.00;;;;;50.07;9.45;102391.09;5058830;28;45550;-57
2022/07/06 09:26:22;;;;;;;;;3.33;2.00;;;;;50.12;9.43;102383.38;5052745;28;45348;-57
2022/07/06 09:28:48;;;;;;;;;2.00;2.00;;;;;50.62;8.93;102384.75;5050941;28;46123;-57
2022/07/06 09:31:14;;;;;;;;;2.00;2.00;;;;;51.38;9.26;102387.09;5052688;28;45407;-57
2022/07/06 09:33:56;;;;;;;;;2.00;2.00;;;;;52.27;8.41;102386.66;5048608;28;45810;-57
2022/07/06 09:36:36;;;;;;;;;1.00;1.00;;;;;53.01;7.86;102390.81;5053783;28;45442;-57
2022/07/06 09:39:32;;;;;;;;;2.00;2.00;;;;;53.35;8.37;102383.53;5056540;28;46077;-57
2022/07/06 09:41:59;;;;;;;;;4.00;3.00;;;;;54.03;6.95;102397.25;5052709;28;45606;-57
2022/07/06 09:44:33;;;;;;;;;3.00;3.00;;;;;54.65;7.31;102386.50;5056256;28;45778;-57
2022/07/06 09:47:01;;;;;;;;;3.00;3.00;;;;;55.15;7.41;102387.75;5058467;28;45454;-56
2022/07/06 09:49:27;;;;;;;;;4.00;3.00;;;;;55.31;6.35;102387.97;5055293;28;47243;-56
2022/07/06 09:51:55;;;;;;;;;3.00;2.00;;;;;55.45;7.28;102398.25;5058736;28;45385;-57
2022/07/06 09:54:20;;;;;;;;;2.33;2.33;;;;;55.82;5.88;102402.13;5056726;28;45410;-57
2022/07/06 09:56:50;;;;;;;;;1.67;1.67;;;;;55.82;6.43;102402.13;5055510;28;45657;-57
2022/07/06 09:59:18;;;;;;;;;5.00;4.00;;;;;55.77;6.86;102402.34;5056488;28;46088;-57
2022/07/06 10:01:44;;;;;;;;;2.33;2.33;;;;;56.18;7.00;102396.88;5056469;28;45508;-56
2022/07/06 10:04:18;;;;;;;;;3.00;2.67;;;;;56.73;6.65;102391.84;5056784;28;45410;-58
2022/07/06 10:06:44;;;;;;;;;3.00;3.00;;;;;57.34;5.63;102389.28;5052971;28;45329;-57
2022/07/06 10:09:10;;;;;;;;;2.33;2.33;;;;;57.63;6.23;102385.22;5052947;28;46787;-57
2022/07/06 10:11:49;;;;;;;;;2.67;2.67;;;;;55.69;5.67;102383.28;5057628;28;45688;-56
2022/07/06 10:14:17;;;;;;;;;2.00;2.00;;;;;56.31;6.34;102387.13;5054881;28;45508;-56
2022/07/06 10:16:45;;;;;;;;;6.00;4.67;;;;;57.29;5.50;102371.16;5055187;28;45504;-56
2022/07/06 10:19:10;;;;;;;;;3.00;3.00;;;;;58.19;5.41;102387.16;5055411;28;46140;-57
2022/07/06 10:21:37;;;;;;;;;5.67;5.00;;;;;58.03;5.36;102381.44;5055696;28;45424;-58
2022/07/06 10:24:07;;;;;;;;;3.00;3.00;;;;;57.76;5.52;102378.25;5057744;28;45769;-56
2022/07/06 10:26:34;;;;;;;;;2.00;2.00;;;;;58.00;5.71;102381.34;5055363;28;45651;-57
2022/07/06 10:29:03;;;;;;;;;2.67;2.67;;;;;58.35;5.41;102378.59;5057050;28;46918;-57
2022/07/06 10:31:29;;;;;;;;;3.00;2.33;;;;;58.28;4.80;102382.13;5056877;28;45574;-57
2022/07/06 10:34:01;;;;;;;;;3.00;3.00;;;;;56.88;4.80;102378.84;5055742;28;45271;-53
2022/07/06 10:36:28;;;;;;;;;4.33;4.00;;;;;52.82;6.93;102376.09;5055279;28;45441;-52
2022/07/06 10:38:53;;;;;;;;;3.33;2.33;;;;;48.83;8.48;102373.88;5056795;28;45655;-58
2022/07/06 10:41:31;;;;;;;;;5.33;5.33;;;;;47.08;9.40;102375.22;5055441;28;45422;-57
2022/07/06 10:43:57;;;;;;;;;3.00;3.00;;;;;48.46;9.34;102363.28;5056053;28;45469;-57
2022/07/06 10:46:24;;;;;;;;;1.33;1.33;;;;;50.24;8.80;102371.56;5056646;28;45525;-58
2022/07/06 10:48:51;;;;;;;;;4.33;3.33;;;;;48.64;8.89;102378.63;5057063;28;45426;-57
2022/07/06 10:51:24;;;;;;;;;4.33;4.33;;;;;47.68;9.03;102374.34;5059926;28;45505;-57
2022/07/06 10:53:58;;;;;;;;;7.00;6.00;;;;;45.83;10.26;102379.25;5049938;28;45695;-57
2022/07/06 10:56:45;;;;;;;;;5.00;5.00;;;;;44.38;10.81;102374.91;5053136;28;45505;-57
2022/07/06 10:59:17;;;;;;;;;4.00;4.00;;;;;47.09;9.87;102382.53;5050096;28;45741;-57
2022/07/06 11:02:11;;;;;;;;;4.00;4.00;;;;;47.28;9.44;102374.28;5055524;28;45481;-57
2022/07/06 11:04:38;;;;;;;;;3.67;3.67;;;;;48.65;9.60;102369.88;5046130;28;45446;-57
2022/07/06 11:07:09;;;;;;;;;6.00;5.00;;;;;50.44;8.18;102364.69;5053321;28;45464;-57
2022/07/06 11:09:35;;;;;;;;;5.67;5.67;;;;;50.88;7.83;102362.44;5042827;28;46952;-57
2022/07/06 11:12:12;;;;;;;;;5.33;5.33;;;;;51.29;7.84;102360.69;5057998;28;45629;-57
2022/07/06 11:14:37;;;;;;;;;7.33;6.00;;;;;50.51;7.93;102355.81;5054391;28;45378;-57
2022/07/06 11:17:04;;;;;;;;;7.00;7.00;;;;;52.80;7.28;102355.72;5057938;28;68977;-57
2022/07/06 11:19:30;;;;;;;;;6.00;4.33;;;;;54.30;7.53;102351.69;5059328;28;47090;-58
2022/07/06 11:22:09;;;;;;;;;5.00;5.00;;;;;55.80;6.49;102346.63;5059208;28;45657;-57
2022/07/06 11:24:39;;;;;;;;;6.00;6.00;;;;;57.70;5.34;102344.56;5058797;28;45443;-57
2022/07/06 11:27:06;;;;;;;;;7.33;5.67;;;;;58.59;4.87;102342.38;5057507;28;45487;-58
2022/07/06 11:29:34;;;;;;;;;7.33;5.33;;;;;56.69;5.73;102348.06;5054170;28;46364;-57